Main page
METAR-TAF:

METAR-TAF

Airports :

Savonlinna Airport

Savonlinna, Finland

latitude: 61-57N, longitude: 028-57E, elevation: 95 m

Current weather observation

The report was made 7 minutes ago, at 05:20 UTC
Wind 4 kt from the South, varying between Southeast and Southwest
Temperature 3°C
Humidity 75%
Pressure 1028 hPa
Visibility 10 km or more
no clouds below 1500 m and no cumulonimbus

METAR: EFSA 210520Z AUTO 18004KT 140V230 CAVOK 03/M01 Q1028

Time: 08:27 (05:27 UTC)


TAF: missing

Weather observations and forecasts of more than 4000 airports (METAR and TAF reports).

The available stations are represented by yellow and red dots on the map.

Hover mouse over dot to see the name of the station.

Then click to see weather observations and forecasts.

To change the map : click on the green buttons with a black cross to zoom in, on the green button with a dash to zoom out, or on the green arrows for adjacent maps.


METAR-TAF: